KHSV/HSV METAR and TAF weather

Enter ICAO airport designator
Station Type Date Time Source
KHSV METAR 2020/09/19 23:53 UTC NOAA

KHSV 192353Z 07007KT 10SM BKN060 OVC250 22/15 A3015 RMK AO2 SLP205 T02220150 10244 20222 53006


Station Type Date Time Source
KHSV Decoded METAR 2020/09/19 23:53 UTC NOAA

HUNTSVILLE INTERNATIONAL JONES FIELD, AL, United States (KHSV) 34-39N 086-47W 191M
Sep 19, 2020 - 07:53 PM EDT / 2020.09.19 2353 UTC
Wind: from the ENE (070 degrees) at 8 MPH (7 KT):0
Visibility: 10 mile(s):0
Sky conditions: overcast
Temperature: 72.0 F (22.2 C)
Dew Point: 59.0 F (15.0 C)
Relative Humidity: 63%
Pressure (altimeter): 30.15 in. Hg (1020 hPa)
Pressure tendency: 0.02 inches (0.6 hPa) higher than three hours ago
ob: KHSV 192353Z 07007KT 10SM BKN060 OVC250 22/15 A3015 RMK AO2 SLP205 T02220150 10244 20222 53006
cycle: 0

Station Type Date Time Source
KHSV TAF 2020/09/19 18:22 UTC NOAA

TAF KHSV 191720Z 1918/2018 07006KT P6SM OVC035
FM192100 07006KT P6SM SCT040 BKN060
FM201300 10005KT P6SM FEW040

Example: see airport list